sensor_id;sensor_type;location;lat;lon;timestamp;P1;durP1;ratioP1;P2;durP2;ratioP2
71610;SDS011;59459;51.172;6.682;2023-02-28T00:00:31;12.00;;;5.07;;
71610;SDS011;59459;51.172;6.682;2023-02-28T00:02:56;12.77;;;5.70;;
71610;SDS011;59459;51.172;6.682;2023-02-28T00:05:22;12.97;;;4.87;;
71610;SDS011;59459;51.172;6.682;2023-02-28T00:07:49;9.32;;;4.95;;
71610;SDS011;59459;51.172;6.682;2023-02-28T00:10:16;11.40;;;5.00;;
71610;SDS011;59459;51.172;6.682;2023-02-28T00:12:49;10.43;;;4.83;;
71610;SDS011;59459;51.172;6.682;2023-02-28T00:15:14;12.43;;;5.50;;
71610;SDS011;59459;51.172;6.682;2023-02-28T00:17:40;12.53;;;5.20;;
71610;SDS011;59459;51.172;6.682;2023-02-28T00:20:05;13.67;;;4.97;;
71610;SDS011;59459;51.172;6.682;2023-02-28T00:22:35;12.98;;;4.78;;
71610;SDS011;59459;51.172;6.682;2023-02-28T00:25:00;10.82;;;5.28;;
71610;SDS011;59459;51.172;6.682;2023-02-28T00:27:25;10.47;;;4.40;;
71610;SDS011;59459;51.172;6.682;2023-02-28T00:29:50;15.00;;;5.33;;
71610;SDS011;59459;51.172;6.682;2023-02-28T00:32:16;10.40;;;4.50;;
71610;SDS011;59459;51.172;6.682;2023-02-28T00:34:41;9.00;;;4.27;;
71610;SDS011;59459;51.172;6.682;2023-02-28T00:37:07;11.43;;;4.20;;
71610;SDS011;59459;51.172;6.682;2023-02-28T00:39:33;12.43;;;4.17;;
71610;SDS011;59459;51.172;6.682;2023-02-28T00:41:59;11.20;;;4.60;;
71610;SDS011;59459;51.172;6.682;2023-02-28T00:44:24;11.23;;;4.67;;
71610;SDS011;59459;51.172;6.682;2023-02-28T00:46:49;9.53;;;4.37;;
71610;SDS011;59459;51.172;6.682;2023-02-28T00:49:16;9.73;;;4.03;;
71610;SDS011;59459;51.172;6.682;2023-02-28T00:51:41;11.07;;;4.40;;
71610;SDS011;59459;51.172;6.682;2023-02-28T00:54:06;8.37;;;3.80;;
71610;SDS011;59459;51.172;6.682;2023-02-28T00:56:32;10.83;;;4.13;;
71610;SDS011;59459;51.172;6.682;2023-02-28T00:58:57;8.93;;;3.87;;
71610;SDS011;59459;51.172;6.682;2023-02-28T01:01:22;9.13;;;3.60;;
71610;SDS011;59459;51.172;6.682;2023-02-28T01:03:47;9.47;;;3.60;;
71610;SDS011;59459;51.172;6.682;2023-02-28T01:06:13;10.90;;;3.73;;
71610;SDS011;59459;51.172;6.682;2023-02-28T01:08:38;9.53;;;3.63;;
71610;SDS011;59459;51.172;6.682;2023-02-28T01:11:09;7.77;;;3.77;;
71610;SDS011;59459;51.172;6.682;2023-02-28T01:13:35;10.57;;;4.20;;
71610;SDS011;59459;51.172;6.682;2023-02-28T01:16:00;9.83;;;3.10;;
71610;SDS011;59459;51.172;6.682;2023-02-28T01:18:25;8.50;;;3.47;;
71610;SDS011;59459;51.172;6.682;2023-02-28T01:20:51;9.53;;;4.00;;
71610;SDS011;59459;51.172;6.682;2023-02-28T01:23:17;10.85;;;3.58;;
71610;SDS011;59459;51.172;6.682;2023-02-28T01:25:43;14.25;;;4.03;;
71610;SDS011;59459;51.172;6.682;2023-02-28T01:28:08;7.53;;;3.03;;
71610;SDS011;59459;51.172;6.682;2023-02-28T01:30:33;8.80;;;3.30;;
71610;SDS011;59459;51.172;6.682;2023-02-28T01:32:59;12.10;;;3.27;;
71610;SDS011;59459;51.172;6.682;2023-02-28T01:35:24;11.27;;;3.60;;
71610;SDS011;59459;51.172;6.682;2023-02-28T01:37:49;10.40;;;3.20;;
71610;SDS011;59459;51.172;6.682;2023-02-28T01:40:15;8.63;;;3.33;;
71610;SDS011;59459;51.172;6.682;2023-02-28T01:42:40;10.82;;;3.75;;
71610;SDS011;59459;51.172;6.682;2023-02-28T01:47:38;9.73;;;3.50;;
71610;SDS011;59459;51.172;6.682;2023-02-28T01:50:06;10.15;;;3.53;;
71610;SDS011;59459;51.172;6.682;2023-02-28T01:52:32;11.73;;;2.93;;
71610;SDS011;59459;51.172;6.682;2023-02-28T01:54:58;9.38;;;3.00;;
71610;SDS011;59459;51.172;6.682;2023-02-28T01:57:25;9.10;;;3.35;;
71610;SDS011;59459;51.172;6.682;2023-02-28T01:59:56;9.50;;;3.00;;
71610;SDS011;59459;51.172;6.682;2023-02-28T02:02:23;8.48;;;3.00;;
71610;SDS011;59459;51.172;6.682;2023-02-28T02:04:57;10.93;;;3.80;;
71610;SDS011;59459;51.172;6.682;2023-02-28T02:07:23;7.53;;;3.00;;
71610;SDS011;59459;51.172;6.682;2023-02-28T02:09:49;7.05;;;3.10;;
71610;SDS011;59459;51.172;6.682;2023-02-28T02:17:26;6.77;;;3.10;;
71610;SDS011;59459;51.172;6.682;2023-02-28T02:41:14;9.63;;;4.40;;
71610;SDS011;59459;51.172;6.682;2023-02-28T02:48:44;14.25;;;4.78;;
71610;SDS011;59459;51.172;6.682;2023-02-28T02:51:12;13.95;;;4.57;;
71610;SDS011;59459;51.172;6.682;2023-02-28T02:53:41;11.52;;;5.40;;
71610;SDS011;59459;51.172;6.682;2023-02-28T02:56:07;12.20;;;5.45;;
71610;SDS011;59459;51.172;6.682;2023-02-28T02:58:34;11.13;;;4.67;;
71610;SDS011;59459;51.172;6.682;2023-02-28T03:01:00;15.32;;;5.78;;
71610;SDS011;59459;51.172;6.682;2023-02-28T03:03:26;10.90;;;5.40;;
71610;SDS011;59459;51.172;6.682;2023-02-28T03:05:56;10.57;;;4.82;;
71610;SDS011;59459;51.172;6.682;2023-02-28T03:08:21;11.37;;;5.13;;
71610;SDS011;59459;51.172;6.682;2023-02-28T03:11:00;12.15;;;5.50;;
71610;SDS011;59459;51.172;6.682;2023-02-28T03:26:32;14.75;;;6.32;;
71610;SDS011;59459;51.172;6.682;2023-02-28T03:29:07;15.85;;;6.20;;
71610;SDS011;59459;51.172;6.682;2023-02-28T03:31:41;15.70;;;5.63;;
71610;SDS011;59459;51.172;6.682;2023-02-28T03:34:29;14.35;;;6.18;;
71610;SDS011;59459;51.172;6.682;2023-02-28T03:36:57;11.93;;;6.35;;
71610;SDS011;59459;51.172;6.682;2023-02-28T03:44:22;17.20;;;7.10;;
71610;SDS011;59459;51.172;6.682;2023-02-28T03:46:52;16.23;;;6.17;;
71610;SDS011;59459;51.172;6.682;2023-02-28T03:49:20;15.63;;;6.20;;
71610;SDS011;59459;51.172;6.682;2023-02-28T03:51:47;13.80;;;6.20;;
71610;SDS011;59459;51.172;6.682;2023-02-28T03:54:15;13.00;;;6.03;;
71610;SDS011;59459;51.172;6.682;2023-02-28T03:56:45;14.37;;;6.30;;
71610;SDS011;59459;51.172;6.682;2023-02-28T03:59:18;13.57;;;6.13;;
71610;SDS011;59459;51.172;6.682;2023-02-28T04:01:45;14.35;;;6.00;;
71610;SDS011;59459;51.172;6.682;2023-02-28T04:04:12;13.50;;;5.75;;
71610;SDS011;59459;51.172;6.682;2023-02-28T04:06:38;11.87;;;5.77;;
71610;SDS011;59459;51.172;6.682;2023-02-28T04:09:03;13.33;;;5.20;;
71610;SDS011;59459;51.172;6.682;2023-02-28T04:13:57;12.20;;;5.37;;
71610;SDS011;59459;51.172;6.682;2023-02-28T04:16:22;12.63;;;5.50;;
71610;SDS011;59459;51.172;6.682;2023-02-28T04:18:47;11.80;;;5.23;;
71610;SDS011;59459;51.172;6.682;2023-02-28T04:21:13;13.47;;;5.90;;
71610;SDS011;59459;51.172;6.682;2023-02-28T04:23:38;12.52;;;5.55;;
71610;SDS011;59459;51.172;6.682;2023-02-28T04:26:03;14.97;;;5.23;;
71610;SDS011;59459;51.172;6.682;2023-02-28T04:28:29;12.63;;;4.97;;
71610;SDS011;59459;51.172;6.682;2023-02-28T04:30:57;10.37;;;4.70;;
71610;SDS011;59459;51.172;6.682;2023-02-28T04:33:23;10.77;;;4.85;;
71610;SDS011;59459;51.172;6.682;2023-02-28T04:35:48;10.23;;;4.50;;
71610;SDS011;59459;51.172;6.682;2023-02-28T04:38:13;9.33;;;4.67;;
71610;SDS011;59459;51.172;6.682;2023-02-28T04:40:38;12.70;;;5.00;;
71610;SDS011;59459;51.172;6.682;2023-02-28T04:43:03;10.83;;;5.00;;
71610;SDS011;59459;51.172;6.682;2023-02-28T04:45:29;11.67;;;5.00;;
71610;SDS011;59459;51.172;6.682;2023-02-28T04:47:57;10.17;;;3.77;;
71610;SDS011;59459;51.172;6.682;2023-02-28T04:50:22;8.70;;;4.30;;
71610;SDS011;59459;51.172;6.682;2023-02-28T04:52:47;11.27;;;5.00;;
71610;SDS011;59459;51.172;6.682;2023-02-28T04:55:12;9.67;;;4.50;;
71610;SDS011;59459;51.172;6.682;2023-02-28T04:57:38;12.63;;;4.67;;
71610;SDS011;59459;51.172;6.682;2023-02-28T05:00:03;11.47;;;4.23;;
71610;SDS011;59459;51.172;6.682;2023-02-28T05:02:33;13.00;;;4.53;;
71610;SDS011;59459;51.172;6.682;2023-02-28T05:04:58;11.82;;;4.93;;
71610;SDS011;59459;51.172;6.682;2023-02-28T05:07:24;14.37;;;5.00;;
71610;SDS011;59459;51.172;6.682;2023-02-28T05:09:49;12.20;;;4.57;;
71610;SDS011;59459;51.172;6.682;2023-02-28T05:12:14;12.67;;;5.47;;
71610;SDS011;59459;51.172;6.682;2023-02-28T05:14:39;11.17;;;4.53;;
71610;SDS011;59459;51.172;6.682;2023-02-28T05:17:04;10.30;;;4.40;;
71610;SDS011;59459;51.172;6.682;2023-02-28T05:19:30;8.43;;;3.60;;
71610;SDS011;59459;51.172;6.682;2023-02-28T05:21:55;9.80;;;4.27;;
71610;SDS011;59459;51.172;6.682;2023-02-28T05:24:20;13.07;;;4.80;;
71610;SDS011;59459;51.172;6.682;2023-02-28T05:26:49;11.35;;;4.30;;
71610;SDS011;59459;51.172;6.682;2023-02-28T05:29:15;10.57;;;4.93;;
71610;SDS011;59459;51.172;6.682;2023-02-28T05:31:40;13.60;;;4.50;;
71610;SDS011;59459;51.172;6.682;2023-02-28T05:34:05;13.50;;;4.40;;
71610;SDS011;59459;51.172;6.682;2023-02-28T05:36:30;11.37;;;4.17;;
71610;SDS011;59459;51.172;6.682;2023-02-28T05:38:56;8.07;;;3.17;;
71610;SDS011;59459;51.172;6.682;2023-02-28T05:41:21;9.20;;;3.70;;
71610;SDS011;59459;51.172;6.682;2023-02-28T05:43:46;8.93;;;4.30;;
71610;SDS011;59459;51.172;6.682;2023-02-28T05:46:12;12.23;;;4.38;;
71610;SDS011;59459;51.172;6.682;2023-02-28T05:48:38;9.30;;;3.60;;
71610;SDS011;59459;51.172;6.682;2023-02-28T05:51:04;11.18;;;4.10;;
71610;SDS011;59459;51.172;6.682;2023-02-28T05:53:30;10.75;;;4.20;;
71610;SDS011;59459;51.172;6.682;2023-02-28T05:55:55;11.37;;;4.10;;
71610;SDS011;59459;51.172;6.682;2023-02-28T05:58:21;11.07;;;4.03;;
71610;SDS011;59459;51.172;6.682;2023-02-28T06:00:47;10.43;;;3.37;;
71610;SDS011;59459;51.172;6.682;2023-02-28T06:03:12;10.47;;;3.30;;
71610;SDS011;59459;51.172;6.682;2023-02-28T06:05:37;9.03;;;3.90;;
71610;SDS011;59459;51.172;6.682;2023-02-28T06:08:03;9.45;;;3.55;;
71610;SDS011;59459;51.172;6.682;2023-02-28T06:10:29;9.33;;;3.60;;
71610;SDS011;59459;51.172;6.682;2023-02-28T06:12:54;9.77;;;3.93;;
71610;SDS011;59459;51.172;6.682;2023-02-28T06:15:19;9.93;;;3.93;;
71610;SDS011;59459;51.172;6.682;2023-02-28T06:17:45;9.05;;;4.40;;
71610;SDS011;59459;51.172;6.682;2023-02-28T06:20:13;8.90;;;4.15;;
71610;SDS011;59459;51.172;6.682;2023-02-28T06:22:39;12.53;;;4.30;;
71610;SDS011;59459;51.172;6.682;2023-02-28T06:25:04;14.40;;;4.70;;
71610;SDS011;59459;51.172;6.682;2023-02-28T06:27:30;9.48;;;4.20;;
71610;SDS011;59459;51.172;6.682;2023-02-28T06:29:56;10.35;;;4.13;;
71610;SDS011;59459;51.172;6.682;2023-02-28T06:32:21;12.77;;;4.43;;
71610;SDS011;59459;51.172;6.682;2023-02-28T06:34:47;10.97;;;4.37;;
71610;SDS011;59459;51.172;6.682;2023-02-28T06:37:12;9.23;;;4.07;;
71610;SDS011;59459;51.172;6.682;2023-02-28T06:39:37;16.37;;;4.57;;
71610;SDS011;59459;51.172;6.682;2023-02-28T06:42:02;10.93;;;4.50;;
71610;SDS011;59459;51.172;6.682;2023-02-28T06:44:27;12.90;;;4.77;;
71610;SDS011;59459;51.172;6.682;2023-02-28T06:46:59;9.60;;;4.55;;
71610;SDS011;59459;51.172;6.682;2023-02-28T06:49:25;10.30;;;4.50;;
71610;SDS011;59459;51.172;6.682;2023-02-28T06:51:50;8.77;;;4.10;;
71610;SDS011;59459;51.172;6.682;2023-02-28T06:54:15;11.73;;;4.27;;
71610;SDS011;59459;51.172;6.682;2023-02-28T06:56:40;8.60;;;3.57;;
71610;SDS011;59459;51.172;6.682;2023-02-28T06:59:05;10.60;;;4.17;;
71610;SDS011;59459;51.172;6.682;2023-02-28T07:01:31;11.23;;;4.17;;
71610;SDS011;59459;51.172;6.682;2023-02-28T07:03:59;9.35;;;3.85;;
71610;SDS011;59459;51.172;6.682;2023-02-28T07:06:25;12.20;;;4.33;;
71610;SDS011;59459;51.172;6.682;2023-02-28T07:08:50;7.82;;;3.35;;
71610;SDS011;59459;51.172;6.682;2023-02-28T07:11:17;9.23;;;3.73;;
71610;SDS011;59459;51.172;6.682;2023-02-28T07:13:42;8.73;;;4.13;;
71610;SDS011;59459;51.172;6.682;2023-02-28T07:16:09;10.27;;;3.17;;
71610;SDS011;59459;51.172;6.682;2023-02-28T07:18:35;7.32;;;3.25;;
71610;SDS011;59459;51.172;6.682;2023-02-28T07:21:04;7.63;;;2.97;;
71610;SDS011;59459;51.172;6.682;2023-02-28T07:23:29;9.00;;;3.10;;
71610;SDS011;59459;51.172;6.682;2023-02-28T07:25:55;10.10;;;2.97;;
71610;SDS011;59459;51.172;6.682;2023-02-28T07:28:20;10.03;;;2.97;;
71610;SDS011;59459;51.172;6.682;2023-02-28T07:30:45;7.63;;;3.13;;
71610;SDS011;59459;51.172;6.682;2023-02-28T07:33:10;6.50;;;2.27;;
71610;SDS011;59459;51.172;6.682;2023-02-28T07:35:35;6.30;;;2.77;;
71610;SDS011;59459;51.172;6.682;2023-02-28T07:38:01;7.97;;;2.70;;
71610;SDS011;59459;51.172;6.682;2023-02-28T07:40:27;7.88;;;2.65;;
71610;SDS011;59459;51.172;6.682;2023-02-28T07:42:53;6.40;;;2.07;;
71610;SDS011;59459;51.172;6.682;2023-02-28T07:45:18;4.47;;;1.40;;
71610;SDS011;59459;51.172;6.682;2023-02-28T07:47:44;7.33;;;2.67;;
71610;SDS011;59459;51.172;6.682;2023-02-28T07:50:11;6.80;;;2.27;;
71610;SDS011;59459;51.172;6.682;2023-02-28T07:52:37;5.80;;;2.47;;
71610;SDS011;59459;51.172;6.682;2023-02-28T07:55:03;5.10;;;2.58;;
71610;SDS011;59459;51.172;6.682;2023-02-28T07:57:29;7.95;;;2.60;;
71610;SDS011;59459;51.172;6.682;2023-02-28T07:59:54;6.77;;;2.77;;
71610;SDS011;59459;51.172;6.682;2023-02-28T08:02:19;8.37;;;2.20;;
71610;SDS011;59459;51.172;6.682;2023-02-28T08:04:45;7.33;;;2.80;;
71610;SDS011;59459;51.172;6.682;2023-02-28T08:07:12;9.70;;;2.57;;
71610;SDS011;59459;51.172;6.682;2023-02-28T08:09:38;6.65;;;2.17;;
71610;SDS011;59459;51.172;6.682;2023-02-28T08:12:03;8.90;;;2.20;;
71610;SDS011;59459;51.172;6.682;2023-02-28T08:14:28;6.30;;;2.13;;
71610;SDS011;59459;51.172;6.682;2023-02-28T08:16:54;5.83;;;2.00;;
71610;SDS011;59459;51.172;6.682;2023-02-28T08:19:19;6.20;;;2.37;;
71610;SDS011;59459;51.172;6.682;2023-02-28T08:21:44;5.73;;;2.23;;
71610;SDS011;59459;51.172;6.682;2023-02-28T08:24:09;5.17;;;1.93;;
71610;SDS011;59459;51.172;6.682;2023-02-28T08:26:35;6.43;;;2.30;;
71610;SDS011;59459;51.172;6.682;2023-02-28T08:29:00;7.03;;;2.30;;
71610;SDS011;59459;51.172;6.682;2023-02-28T08:31:25;5.67;;;2.50;;
71610;SDS011;59459;51.172;6.682;2023-02-28T08:33:50;6.23;;;1.80;;
71610;SDS011;59459;51.172;6.682;2023-02-28T08:36:17;5.45;;;2.00;;
71610;SDS011;59459;51.172;6.682;2023-02-28T08:38:43;6.10;;;1.77;;
71610;SDS011;59459;51.172;6.682;2023-02-28T08:41:09;5.87;;;2.07;;
71610;SDS011;59459;51.172;6.682;2023-02-28T08:43:35;6.03;;;2.22;;
71610;SDS011;59459;51.172;6.682;2023-02-28T08:46:00;5.83;;;1.70;;
71610;SDS011;59459;51.172;6.682;2023-02-28T08:48:26;4.57;;;1.90;;
71610;SDS011;59459;51.172;6.682;2023-02-28T08:53:23;4.63;;;1.35;;
71610;SDS011;59459;51.172;6.682;2023-02-28T08:55:55;2.53;;;1.23;;
71610;SDS011;59459;51.172;6.682;2023-02-28T08:58:20;4.40;;;1.50;;
71610;SDS011;59459;51.172;6.682;2023-02-28T09:00:45;4.30;;;1.40;;
71610;SDS011;59459;51.172;6.682;2023-02-28T09:03:10;6.37;;;1.57;;
71610;SDS011;59459;51.172;6.682;2023-02-28T09:05:36;4.10;;;1.50;;
71610;SDS011;59459;51.172;6.682;2023-02-28T09:08:01;4.70;;;1.90;;
71610;SDS011;59459;51.172;6.682;2023-02-28T09:10:26;6.30;;;1.50;;
71610;SDS011;59459;51.172;6.682;2023-02-28T09:12:51;3.70;;;1.50;;
71610;SDS011;59459;51.172;6.682;2023-02-28T09:15:17;4.77;;;1.63;;
71610;SDS011;59459;51.172;6.682;2023-02-28T09:17:43;6.33;;;1.70;;
71610;SDS011;59459;51.172;6.682;2023-02-28T09:20:08;5.97;;;1.63;;
71610;SDS011;59459;51.172;6.682;2023-02-28T09:22:33;3.95;;;1.25;;
71610;SDS011;59459;51.172;6.682;2023-02-28T09:24:59;3.20;;;1.30;;
71610;SDS011;59459;51.172;6.682;2023-02-28T09:27:24;5.30;;;1.60;;
71610;SDS011;59459;51.172;6.682;2023-02-28T09:29:49;5.87;;;1.60;;
71610;SDS011;59459;51.172;6.682;2023-02-28T09:32:20;3.50;;;1.53;;
71610;SDS011;59459;51.172;6.682;2023-02-28T09:34:46;5.25;;;1.77;;
71610;SDS011;59459;51.172;6.682;2023-02-28T09:37:11;3.00;;;1.20;;
71610;SDS011;59459;51.172;6.682;2023-02-28T09:39:36;3.27;;;0.90;;
71610;SDS011;59459;51.172;6.682;2023-02-28T09:42:02;5.20;;;1.47;;
71610;SDS011;59459;51.172;6.682;2023-02-28T09:44:38;3.25;;;1.38;;
71610;SDS011;59459;51.172;6.682;2023-02-28T09:47:14;3.47;;;1.60;;
71610;SDS011;59459;51.172;6.682;2023-02-28T09:49:44;4.90;;;1.58;;
71610;SDS011;59459;51.172;6.682;2023-02-28T09:52:15;3.65;;;1.38;;
71610;SDS011;59459;51.172;6.682;2023-02-28T09:54:41;3.23;;;1.30;;
71610;SDS011;59459;51.172;6.682;2023-02-28T09:57:10;4.00;;;1.30;;
71610;SDS011;59459;51.172;6.682;2023-02-28T09:59:44;3.92;;;1.52;;
71610;SDS011;59459;51.172;6.682;2023-02-28T10:07:47;5.72;;;1.90;;
71610;SDS011;59459;51.172;6.682;2023-02-28T10:10:18;3.53;;;1.30;;
71610;SDS011;59459;51.172;6.682;2023-02-28T10:12:45;5.18;;;1.20;;
71610;SDS011;59459;51.172;6.682;2023-02-28T10:15:14;6.63;;;1.42;;
71610;SDS011;59459;51.172;6.682;2023-02-28T10:17:40;3.67;;;1.05;;
71610;SDS011;59459;51.172;6.682;2023-02-28T10:20:09;4.20;;;1.42;;
71610;SDS011;59459;51.172;6.682;2023-02-28T10:22:52;4.67;;;1.30;;
71610;SDS011;59459;51.172;6.682;2023-02-28T10:25:19;4.20;;;1.70;;
71610;SDS011;59459;51.172;6.682;2023-02-28T10:27:45;3.88;;;1.40;;
71610;SDS011;59459;51.172;6.682;2023-02-28T10:30:10;4.70;;;1.50;;
71610;SDS011;59459;51.172;6.682;2023-02-28T10:32:36;3.30;;;1.60;;
71610;SDS011;59459;51.172;6.682;2023-02-28T10:37:29;4.40;;;1.53;;
71610;SDS011;59459;51.172;6.682;2023-02-28T10:39:56;4.07;;;2.10;;
71610;SDS011;59459;51.172;6.682;2023-02-28T10:42:25;5.13;;;2.10;;
71610;SDS011;59459;51.172;6.682;2023-02-28T10:47:35;4.60;;;2.25;;
71610;SDS011;59459;51.172;6.682;2023-02-28T10:50:02;3.92;;;2.78;;
71610;SDS011;59459;51.172;6.682;2023-02-28T10:52:36;3.40;;;2.33;;
71610;SDS011;59459;51.172;6.682;2023-02-28T10:55:21;3.47;;;2.20;;
71610;SDS011;59459;51.172;6.682;2023-02-28T10:57:47;6.43;;;2.53;;
71610;SDS011;59459;51.172;6.682;2023-02-28T11:00:17;3.30;;;2.60;;
71610;SDS011;59459;51.172;6.682;2023-02-28T11:02:44;5.30;;;2.70;;
71610;SDS011;59459;51.172;6.682;2023-02-28T11:05:31;4.13;;;2.85;;
71610;SDS011;59459;51.172;6.682;2023-02-28T11:07:56;5.18;;;3.00;;
71610;SDS011;59459;51.172;6.682;2023-02-28T11:10:23;7.10;;;3.37;;
71610;SDS011;59459;51.172;6.682;2023-02-28T11:12:49;4.60;;;3.05;;
71610;SDS011;59459;51.172;6.682;2023-02-28T11:17:45;4.95;;;3.13;;
71610;SDS011;59459;51.172;6.682;2023-02-28T11:20:20;4.85;;;3.30;;
71610;SDS011;59459;51.172;6.682;2023-02-28T11:22:46;5.20;;;3.25;;
71610;SDS011;59459;51.172;6.682;2023-02-28T11:25:26;5.40;;;3.42;;
71610;SDS011;59459;51.172;6.682;2023-02-28T11:27:52;3.30;;;2.73;;
71610;SDS011;59459;51.172;6.682;2023-02-28T11:30:34;6.05;;;3.45;;
71610;SDS011;59459;51.172;6.682;2023-02-28T11:33:00;3.72;;;2.75;;
71610;SDS011;59459;51.172;6.682;2023-02-28T11:37:59;3.78;;;2.85;;
71610;SDS011;59459;51.172;6.682;2023-02-28T11:40:28;4.83;;;3.03;;
71610;SDS011;59459;51.172;6.682;2023-02-28T11:42:57;5.05;;;3.78;;
71610;SDS011;59459;51.172;6.682;2023-02-28T11:45:38;5.13;;;3.28;;
71610;SDS011;59459;51.172;6.682;2023-02-28T11:51:09;4.53;;;2.63;;
71610;SDS011;59459;51.172;6.682;2023-02-28T11:53:39;4.60;;;3.10;;
71610;SDS011;59459;51.172;6.682;2023-02-28T11:56:10;4.45;;;3.20;;
71610;SDS011;59459;51.172;6.682;2023-02-28T12:01:26;4.97;;;3.08;;
71610;SDS011;59459;51.172;6.682;2023-02-28T12:06:45;4.80;;;3.40;;
71610;SDS011;59459;51.172;6.682;2023-02-28T12:12:01;4.18;;;2.67;;
71610;SDS011;59459;51.172;6.682;2023-02-28T12:17:16;3.50;;;2.47;;
71610;SDS011;59459;51.172;6.682;2023-02-28T12:20:05;5.07;;;3.00;;
71610;SDS011;59459;51.172;6.682;2023-02-28T12:27:46;4.20;;;2.83;;
71610;SDS011;59459;51.172;6.682;2023-02-28T12:32:44;4.33;;;2.70;;
71610;SDS011;59459;51.172;6.682;2023-02-28T12:35:12;5.30;;;3.20;;
71610;SDS011;59459;51.172;6.682;2023-02-28T12:37:40;4.45;;;2.55;;
71610;SDS011;59459;51.172;6.682;2023-02-28T12:40:11;4.50;;;3.40;;
71610;SDS011;59459;51.172;6.682;2023-02-28T12:42:42;4.03;;;2.75;;
71610;SDS011;59459;51.172;6.682;2023-02-28T12:47:36;4.90;;;2.73;;
71610;SDS011;59459;51.172;6.682;2023-02-28T12:50:04;4.88;;;3.22;;
71610;SDS011;59459;51.172;6.682;2023-02-28T12:55:13;5.20;;;3.45;;
71610;SDS011;59459;51.172;6.682;2023-02-28T12:57:48;6.78;;;3.38;;
71610;SDS011;59459;51.172;6.682;2023-02-28T13:00:19;4.50;;;2.70;;
71610;SDS011;59459;51.172;6.682;2023-02-28T13:10:23;4.50;;;2.40;;
71610;SDS011;59459;51.172;6.682;2023-02-28T13:12:50;5.10;;;2.57;;
71610;SDS011;59459;51.172;6.682;2023-02-28T13:17:50;4.70;;;2.75;;
71610;SDS011;59459;51.172;6.682;2023-02-28T13:20:17;4.27;;;2.73;;
71610;SDS011;59459;51.172;6.682;2023-02-28T13:22:44;4.95;;;2.42;;
71610;SDS011;59459;51.172;6.682;2023-02-28T13:27:47;5.40;;;2.70;;
71610;SDS011;59459;51.172;6.682;2023-02-28T13:35:43;5.80;;;2.70;;
71610;SDS011;59459;51.172;6.682;2023-02-28T13:38:13;5.72;;;2.60;;
71610;SDS011;59459;51.172;6.682;2023-02-28T13:40:40;7.68;;;3.13;;
71610;SDS011;59459;51.172;6.682;2023-02-28T13:43:07;5.83;;;2.80;;
71610;SDS011;59459;51.172;6.682;2023-02-28T13:45:33;6.05;;;2.95;;
71610;SDS011;59459;51.172;6.682;2023-02-28T13:48:04;5.73;;;3.20;;
71610;SDS011;59459;51.172;6.682;2023-02-28T14:06:09;6.18;;;2.53;;
71610;SDS011;59459;51.172;6.682;2023-02-28T14:08:35;4.43;;;2.65;;
71610;SDS011;59459;51.172;6.682;2023-02-28T14:11:05;4.83;;;2.73;;
71610;SDS011;59459;51.172;6.682;2023-02-28T14:16:05;5.82;;;2.70;;
71610;SDS011;59459;51.172;6.682;2023-02-28T14:18:34;5.38;;;2.63;;
71610;SDS011;59459;51.172;6.682;2023-02-28T14:29:22;4.68;;;3.00;;
71610;SDS011;59459;51.172;6.682;2023-02-28T14:31:58;6.85;;;3.70;;
71610;SDS011;59459;51.172;6.682;2023-02-28T14:34:48;5.80;;;2.75;;
71610;SDS011;59459;51.172;6.682;2023-02-28T14:37:16;4.07;;;2.47;;
71610;SDS011;59459;51.172;6.682;2023-02-28T14:39:44;6.07;;;2.80;;
71610;SDS011;59459;51.172;6.682;2023-02-28T14:42:27;5.45;;;2.90;;
71610;SDS011;59459;51.172;6.682;2023-02-28T14:44:55;5.37;;;3.00;;
71610;SDS011;59459;51.172;6.682;2023-02-28T14:47:21;5.15;;;2.72;;
71610;SDS011;59459;51.172;6.682;2023-02-28T14:49:48;4.43;;;2.80;;
71610;SDS011;59459;51.172;6.682;2023-02-28T14:54:45;9.73;;;3.33;;
71610;SDS011;59459;51.172;6.682;2023-02-28T14:57:32;5.53;;;2.53;;
71610;SDS011;59459;51.172;6.682;2023-02-28T15:02:40;4.53;;;2.63;;
71610;SDS011;59459;51.172;6.682;2023-02-28T15:07:37;5.68;;;2.95;;
71610;SDS011;59459;51.172;6.682;2023-02-28T15:12:39;5.47;;;3.07;;
71610;SDS011;59459;51.172;6.682;2023-02-28T15:15:05;7.00;;;2.80;;
71610;SDS011;59459;51.172;6.682;2023-02-28T15:17:32;6.85;;;3.03;;
71610;SDS011;59459;51.172;6.682;2023-02-28T15:19:58;5.93;;;2.80;;
71610;SDS011;59459;51.172;6.682;2023-02-28T15:22:27;5.93;;;2.70;;
71610;SDS011;59459;51.172;6.682;2023-02-28T15:24:54;5.37;;;3.03;;
71610;SDS011;59459;51.172;6.682;2023-02-28T15:27:20;5.15;;;2.72;;
71610;SDS011;59459;51.172;6.682;2023-02-28T15:29:47;5.40;;;2.60;;
71610;SDS011;59459;51.172;6.682;2023-02-28T15:32:26;7.60;;;3.30;;
71610;SDS011;59459;51.172;6.682;2023-02-28T15:34:52;5.95;;;2.70;;
71610;SDS011;59459;51.172;6.682;2023-02-28T15:37:28;5.57;;;2.72;;
71610;SDS011;59459;51.172;6.682;2023-02-28T15:39:58;5.85;;;2.80;;
71610;SDS011;59459;51.172;6.682;2023-02-28T15:42:28;6.93;;;3.17;;
71610;SDS011;59459;51.172;6.682;2023-02-28T15:44:53;7.07;;;3.20;;
71610;SDS011;59459;51.172;6.682;2023-02-28T15:47:19;6.70;;;2.40;;
71610;SDS011;59459;51.172;6.682;2023-02-28T15:52:14;5.83;;;3.17;;
71610;SDS011;59459;51.172;6.682;2023-02-28T15:54:40;6.28;;;2.63;;
71610;SDS011;59459;51.172;6.682;2023-02-28T15:57:10;8.30;;;2.75;;
71610;SDS011;59459;51.172;6.682;2023-02-28T15:59:42;7.28;;;3.10;;
71610;SDS011;59459;51.172;6.682;2023-02-28T16:02:16;6.23;;;2.63;;
71610;SDS011;59459;51.172;6.682;2023-02-28T16:07:23;7.47;;;3.40;;
71610;SDS011;59459;51.172;6.682;2023-02-28T16:09:49;6.30;;;2.87;;
71610;SDS011;59459;51.172;6.682;2023-02-28T16:12:15;9.82;;;3.00;;
71610;SDS011;59459;51.172;6.682;2023-02-28T16:14:40;7.33;;;2.90;;
71610;SDS011;59459;51.172;6.682;2023-02-28T16:17:06;8.50;;;3.60;;
71610;SDS011;59459;51.172;6.682;2023-02-28T16:19:33;6.57;;;2.70;;
71610;SDS011;59459;51.172;6.682;2023-02-28T16:21:59;5.83;;;2.80;;
71610;SDS011;59459;51.172;6.682;2023-02-28T16:24:25;5.72;;;2.53;;
71610;SDS011;59459;51.172;6.682;2023-02-28T16:26:50;6.43;;;3.10;;
71610;SDS011;59459;51.172;6.682;2023-02-28T16:29:38;7.27;;;2.77;;
71610;SDS011;59459;51.172;6.682;2023-02-28T16:32:05;8.85;;;2.85;;
71610;SDS011;59459;51.172;6.682;2023-02-28T16:34:31;5.78;;;3.03;;
71610;SDS011;59459;51.172;6.682;2023-02-28T16:36:56;5.70;;;2.70;;
71610;SDS011;59459;51.172;6.682;2023-02-28T16:39:21;6.23;;;2.50;;
71610;SDS011;59459;51.172;6.682;2023-02-28T16:41:47;7.10;;;3.23;;
71610;SDS011;59459;51.172;6.682;2023-02-28T16:44:17;8.52;;;3.28;;
71610;SDS011;59459;51.172;6.682;2023-02-28T16:46:46;7.88;;;2.95;;
71610;SDS011;59459;51.172;6.682;2023-02-28T16:49:11;9.03;;;3.10;;
71610;SDS011;59459;51.172;6.682;2023-02-28T16:51:37;10.13;;;3.67;;
71610;SDS011;59459;51.172;6.682;2023-02-28T16:54:02;9.53;;;3.30;;
71610;SDS011;59459;51.172;6.682;2023-02-28T16:56:27;8.45;;;3.25;;
71610;SDS011;59459;51.172;6.682;2023-02-28T16:58:52;6.67;;;3.20;;
71610;SDS011;59459;51.172;6.682;2023-02-28T17:01:19;6.60;;;3.10;;
71610;SDS011;59459;51.172;6.682;2023-02-28T17:03:48;8.05;;;3.85;;
71610;SDS011;59459;51.172;6.682;2023-02-28T17:06:20;7.78;;;3.45;;
71610;SDS011;59459;51.172;6.682;2023-02-28T17:08:47;8.35;;;3.45;;
71610;SDS011;59459;51.172;6.682;2023-02-28T17:11:12;8.00;;;2.90;;
71610;SDS011;59459;51.172;6.682;2023-02-28T17:13:37;7.40;;;3.40;;
71610;SDS011;59459;51.172;6.682;2023-02-28T17:16:03;8.17;;;3.33;;
71610;SDS011;59459;51.172;6.682;2023-02-28T17:18:28;8.07;;;3.50;;
71610;SDS011;59459;51.172;6.682;2023-02-28T17:20:58;8.05;;;3.65;;
71610;SDS011;59459;51.172;6.682;2023-02-28T17:23:23;7.20;;;3.67;;